createdAt,value
2018-04-16T00:00:27.438Z,13.8
2018-04-16T00:01:17.784Z,13.8
2018-04-16T00:02:07.846Z,13.8
2018-04-16T00:02:57.925Z,13.8
2018-04-16T00:03:47.971Z,13.8
2018-04-16T00:04:38.053Z,13.8
2018-04-16T00:05:27.843Z,13.8
2018-04-16T00:06:18.163Z,13.8
2018-04-16T00:07:07.955Z,13.8
2018-04-16T00:07:58.287Z,13.8
2018-04-16T00:08:48.355Z,13.8
2018-04-16T00:09:38.434Z,13.8
2018-04-16T00:10:28.241Z,13.7
2018-04-16T00:11:18.275Z,13.7
2018-04-16T00:12:08.328Z,13.7
2018-04-16T00:12:58.396Z,13.7
2018-04-16T00:13:48.463Z,13.7
2018-04-16T00:14:38.821Z,13.7
2018-04-16T00:15:28.930Z,13.7
2018-04-16T00:16:18.665Z,13.7
2018-04-16T00:17:08.723Z,13.7
2018-04-16T00:17:59.060Z,13.7
2018-04-16T00:18:48.855Z,13.7
2018-04-16T00:19:38.912Z,13.7
2018-04-16T00:20:29.251Z,13.7
2018-04-16T00:21:19.320Z,13.7
2018-04-16T00:22:09.093Z,13.6
2018-04-16T00:22:59.456Z,13.6
2018-04-16T00:23:49.235Z,13.6
2018-04-16T00:24:39.565Z,13.6
2018-04-16T00:25:29.638Z,13.6
2018-04-16T00:26:19.709Z,13.6
2018-04-16T00:27:09.769Z,13.6
2018-04-16T00:27:59.821Z,13.6
2018-04-16T00:28:49.605Z,13.6
2018-04-16T00:29:39.678Z,13.6
2018-04-16T00:30:29.733Z,13.6
2018-04-16T00:31:20.085Z,13.6
2018-04-16T00:32:10.128Z,13.6
2018-04-16T00:32:59.915Z,13.6
2018-04-16T00:33:50.281Z,13.6
2018-04-16T00:34:40.326Z,13.6
2018-04-16T00:35:30.105Z,13.6
2018-04-16T00:36:20.450Z,13.6
2018-04-16T00:37:10.230Z,13.6
2018-04-16T00:38:00.594Z,13.5
2018-04-16T00:38:50.641Z,13.5
2018-04-16T00:39:40.427Z,13.5
2018-04-16T00:40:30.769Z,13.5
2018-04-16T00:41:20.836Z,13.5
2018-04-16T00:42:10.907Z,13.5
2018-04-16T00:43:00.686Z,13.5
2018-04-16T00:43:51.040Z,13.4
2018-04-16T00:44:41.107Z,13.4
2018-04-16T00:45:31.159Z,13.5
2018-04-16T00:46:20.944Z,13.4
2018-04-16T00:47:11.282Z,13.4
2018-04-16T00:48:01.073Z,13.4
2018-04-16T00:48:51.401Z,13.4
2018-04-16T00:49:41.201Z,13.4
2018-04-16T00:50:31.258Z,13.4
2018-04-16T00:51:21.314Z,13.4
2018-04-16T00:52:11.661Z,13.4
2018-04-16T00:53:01.441Z,13.4
2018-04-16T00:53:51.796Z,13.4
2018-04-16T00:54:41.291Z,13.4
2018-04-16T00:55:31.355Z,13.4
2018-04-16T00:56:21.981Z,13.4
2018-04-16T00:57:11.787Z,13.4
2018-04-16T00:58:01.832Z,13.4
2018-04-16T00:58:51.901Z,13.3
2018-04-16T00:59:42.229Z,13.3
2018-04-16T01:00:32.301Z,13.4
2018-04-16T01:01:22.087Z,13.3
2018-04-16T01:02:12.431Z,13.3
2018-04-16T01:03:02.208Z,13.3
2018-04-16T01:03:52.555Z,13.3
2018-04-16T01:04:42.607Z,13.3
2018-04-16T01:05:32.683Z,13.3
2018-04-16T01:06:22.462Z,13.3
2018-04-16T01:07:12.516Z,13.3
2018-04-16T01:08:02.599Z,13.3
2018-04-16T01:08:52.660Z,13.3
2018-04-16T01:09:43.000Z,13.3
2018-04-16T01:10:32.785Z,13.3
2018-04-16T01:11:23.131Z,13.3
2018-04-16T01:12:13.184Z,13.3
2018-04-16T01:13:03.266Z,13.2
2018-04-16T01:13:53.336Z,13.3
2018-04-16T01:14:43.099Z,13.2
2018-04-16T01:15:33.166Z,13.2
2018-04-16T01:16:23.501Z,13.2
2018-04-16T01:17:13.574Z,13.2
2018-04-16T01:18:03.643Z,13.2
2018-04-16T01:18:53.699Z,13.2
2018-04-16T01:19:43.476Z,13.1
2018-04-16T01:20:33.817Z,13.1
2018-04-16T01:21:23.599Z,13.1
2018-04-16T01:22:13.946Z,13.1
2018-04-16T01:23:04.016Z,13.1
2018-04-16T01:23:54.088Z,13.1
2018-04-16T01:24:44.136Z,13.1
2018-04-16T01:25:33.926Z,13.1
2018-04-16T01:26:24.263Z,13.1
2018-04-16T01:27:14.338Z,13.1
2018-04-16T01:28:04.395Z,13.1
2018-04-16T01:28:54.471Z,13.1
2018-04-16T01:29:44.520Z,13.1
2018-04-16T01:30:34.599Z,13.1
2018-04-16T01:31:24.360Z,13.1
2018-04-16T01:32:14.442Z,13.1
2018-04-16T01:33:04.221Z,13.1
2018-04-16T01:33:54.562Z,13.1
2018-04-16T01:34:44.337Z,13
2018-04-16T01:35:34.699Z,13
2018-04-16T01:36:25.029Z,13
2018-04-16T01:37:14.835Z,13
2018-04-16T01:38:05.177Z,13
2018-04-16T01:38:55.222Z,13
2018-04-16T01:39:45.019Z,13
2018-04-16T01:40:35.356Z,13
2018-04-16T01:41:25.425Z,12.9
2018-04-16T01:42:15.197Z,12.9
2018-04-16T01:43:05.534Z,12.9
2018-04-16T01:43:55.599Z,12.9
2018-04-16T01:44:45.657Z,12.9
2018-04-16T01:45:35.453Z,12.9
2018-04-16T01:46:25.792Z,12.9
2018-04-16T01:47:15.578Z,12.9
2018-04-16T01:48:05.630Z,12.9
2018-04-16T01:48:55.980Z,12.9
2018-04-16T01:49:46.042Z,12.9
2018-04-16T01:50:36.104Z,12.9
2018-04-16T01:51:26.166Z,12.9
2018-04-16T01:52:16.238Z,12.9
2018-04-16T01:53:06.320Z,12.9
2018-04-16T01:53:56.374Z,12.8
2018-04-16T01:54:46.428Z,12.8
2018-04-16T01:55:36.483Z,12.8
2018-04-16T01:56:26.281Z,12.8
2018-04-16T01:57:16.342Z,12.8
2018-04-16T01:58:06.681Z,12.8
2018-04-16T01:58:56.743Z,12.8
2018-04-16T01:59:46.829Z,12.8
2018-04-16T02:00:36.596Z,12.8
2018-04-16T02:01:26.936Z,12.8
2018-04-16T02:02:17.003Z,12.8
2018-04-16T02:03:07.059Z,12.8
2018-04-16T02:03:57.124Z,12.8
2018-04-16T02:04:47.187Z,12.8
2018-04-16T02:05:37.249Z,12.8
2018-04-16T02:06:27.057Z,12.8
2018-04-16T02:07:17.390Z,12.8
2018-04-16T02:08:07.444Z,12.8
2018-04-16T02:08:57.504Z,12.8
2018-04-16T02:09:47.290Z,12.8
2018-04-16T02:10:37.629Z,12.7
2018-04-16T02:11:27.737Z,12.7
2018-04-16T02:12:17.771Z,12.7
2018-04-16T02:13:07.836Z,12.7
2018-04-16T02:13:57.902Z,12.7
2018-04-16T02:14:47.952Z,12.7
2018-04-16T02:15:38.021Z,12.7
2018-04-16T02:16:28.072Z,12.7
2018-04-16T02:17:18.132Z,12.7
2018-04-16T02:18:08.213Z,12.7
2018-04-16T02:18:58.263Z,12.7
2018-04-16T02:19:48.330Z,12.7
2018-04-16T02:20:38.395Z,12.6
2018-04-16T02:21:28.187Z,12.6
2018-04-16T02:22:18.535Z,12.6
2018-04-16T02:23:08.596Z,12.6
2018-04-16T02:23:58.637Z,12.6
2018-04-16T02:24:48.721Z,12.6
2018-04-16T02:25:38.789Z,12.6
2018-04-16T02:26:28.842Z,12.6
2018-04-16T02:27:18.912Z,12.6
2018-04-16T02:28:08.978Z,12.6
2018-04-16T02:28:59.047Z,12.6
2018-04-16T02:29:49.113Z,12.6
2018-04-16T02:30:39.161Z,12.6
2018-04-16T02:31:28.669Z,12.6
2018-04-16T02:32:19.004Z,12.6
2018-04-16T02:33:09.352Z,12.6
2018-04-16T02:33:59.424Z,12.5
2018-04-16T02:34:49.485Z,12.5
2018-04-16T02:35:39.271Z,12.5
2018-04-16T02:36:29.317Z,12.6
2018-04-16T02:37:19.686Z,12.5
2018-04-16T02:38:09.729Z,12.5
2018-04-16T02:38:59.792Z,12.5
2018-04-16T02:39:49.577Z,12.5
2018-04-16T02:40:39.647Z,12.5
2018-04-16T02:41:30.003Z,12.4
2018-04-16T02:42:20.084Z,12.4
2018-04-16T02:43:10.124Z,12.4
2018-04-16T02:44:00.197Z,12.4
2018-04-16T02:44:50.240Z,12.4
2018-04-16T02:45:40.017Z,12.4
2018-04-16T02:46:30.382Z,12.4
2018-04-16T02:47:20.418Z,12.4
2018-04-16T02:48:10.507Z,12.4
2018-04-16T02:49:00.596Z,12.4
2018-04-16T02:49:50.616Z,12.4
2018-04-16T02:50:40.683Z,12.4
2018-04-16T02:51:30.474Z,12.4
2018-04-16T02:52:20.813Z,12.3
2018-04-16T02:53:10.892Z,12.4
2018-04-16T02:54:00.668Z,12.4
2018-04-16T02:54:51.013Z,12.3
2018-04-16T02:55:41.079Z,12.3
2018-04-16T02:56:31.135Z,12.3
2018-04-16T02:57:21.202Z,12.3
2018-04-16T02:58:11.252Z,12.3
2018-04-16T02:59:01.337Z,12.3
2018-04-16T02:59:51.373Z,12.3
2018-04-16T03:00:41.166Z,12.3
2018-04-16T03:01:31.512Z,12.3
2018-04-16T03:02:21.574Z,12.3
2018-04-16T03:03:11.371Z,12.3
2018-04-16T03:04:01.716Z,12.3
2018-04-16T03:04:51.483Z,12.3
2018-04-16T03:05:41.830Z,12.2
2018-04-16T03:06:31.883Z,12.2
2018-04-16T03:07:21.958Z,12.2
2018-04-16T03:08:12.016Z,12.2
2018-04-16T03:09:01.815Z,12.1
2018-04-16T03:09:52.149Z,12.2
2018-04-16T03:10:41.922Z,12.1
2018-04-16T03:11:32.278Z,12.1
2018-04-16T03:12:22.344Z,12.1
2018-04-16T03:13:12.124Z,12.1
2018-04-16T03:14:02.463Z,12.1
2018-04-16T03:14:52.524Z,12.1
2018-04-16T03:15:42.029Z,12.1
2018-04-16T03:16:32.649Z,12.1
2018-04-16T03:17:22.439Z,12.1
2018-04-16T03:18:12.775Z,12.1
2018-04-16T03:19:02.898Z,12.1
2018-04-16T03:19:52.915Z,12
2018-04-16T03:20:42.959Z,12
2018-04-16T03:21:33.045Z,11.9
2018-04-16T03:22:23.101Z,12
2018-04-16T03:23:13.216Z,12
2018-04-16T03:24:03.215Z,11.9
2018-04-16T03:24:53.273Z,11.9
2018-04-16T03:25:43.562Z,11.9
2018-04-16T03:26:33.139Z,11.9
2018-04-16T03:27:23.484Z,11.9
2018-04-16T03:28:13.264Z,11.9
2018-04-16T03:29:03.040Z,11.9
2018-04-16T03:29:53.668Z,11.9
2018-04-16T03:30:43.746Z,11.8
2018-04-16T03:31:33.804Z,11.8
2018-04-16T03:32:23.881Z,11.8
2018-04-16T03:33:13.926Z,11.8
2018-04-16T03:34:03.701Z,11.8
2018-04-16T03:34:53.773Z,11.8
2018-04-16T03:35:44.131Z,11.8
2018-04-16T03:36:34.191Z,11.8
2018-04-16T03:37:24.243Z,11.8
2018-04-16T03:38:14.308Z,11.8
2018-04-16T03:39:04.389Z,11.8
2018-04-16T03:39:54.154Z,11.7
2018-04-16T03:40:44.489Z,11.7
2018-04-16T03:41:34.278Z,11.7
2018-04-16T03:42:24.623Z,11.7
2018-04-16T03:43:14.681Z,11.6
2018-04-16T03:44:04.757Z,11.6
2018-04-16T03:44:54.823Z,11.6
2018-04-16T03:45:44.891Z,11.6
2018-04-16T03:46:34.928Z,11.6
2018-04-16T03:47:24.743Z,11.6
2018-04-16T03:48:15.079Z,11.6
2018-04-16T03:49:05.153Z,11.6
2018-04-16T03:49:55.188Z,11.6
2018-04-16T03:50:45.248Z,11.5
2018-04-16T03:51:35.315Z,11.5
2018-04-16T03:52:25.377Z,11.5
2018-04-16T03:53:15.437Z,11.5
2018-04-16T03:54:05.515Z,11.5
2018-04-16T03:54:55.587Z,11.4
2018-04-16T03:55:45.352Z,11.5
2018-04-16T03:56:35.708Z,11.4
2018-04-16T03:57:25.750Z,11.4
2018-04-16T03:58:15.537Z,11.4
2018-04-16T03:59:05.883Z,11.4
2018-04-16T03:59:55.940Z,11.4
2018-04-16T04:00:46.003Z,11.4
2018-04-16T04:01:36.099Z,11.4
2018-04-16T04:02:26.143Z,11.4
2018-04-16T04:03:16.218Z,11.4
2018-04-16T04:04:06.275Z,11.4
2018-04-16T04:04:56.043Z,11.3
2018-04-16T04:05:46.384Z,11.3
2018-04-16T04:06:36.448Z,11.3
2018-04-16T04:07:26.529Z,11.3
2018-04-16T04:08:16.579Z,11.3
2018-04-16T04:09:06.437Z,11.3
2018-04-16T04:09:56.703Z,11.3
2018-04-16T04:10:46.763Z,11.3
2018-04-16T04:11:36.836Z,11.3
2018-04-16T04:12:26.613Z,11.2
2018-04-16T04:13:16.670Z,11.2
2018-04-16T04:14:07.020Z,11.2
2018-04-16T04:14:57.080Z,11.2
2018-04-16T04:15:47.146Z,11.2
2018-04-16T04:16:37.210Z,11.2
2018-04-16T04:17:27.284Z,11.1
2018-04-16T04:18:17.062Z,11.1
2018-04-16T04:19:07.392Z,11.1
2018-04-16T04:19:57.460Z,11.1
2018-04-16T04:20:47.517Z,11.1
2018-04-16T04:21:37.307Z,11.1
2018-04-16T04:22:27.643Z,11.1
2018-04-16T04:23:17.439Z,11.1
2018-04-16T04:24:07.785Z,11.1
2018-04-16T04:24:57.943Z,11.1
2018-04-16T04:25:47.903Z,11.1
2018-04-16T04:26:37.969Z,11.1
2018-04-16T04:27:28.024Z,11.1
2018-04-16T04:28:17.801Z,11.1
2018-04-16T04:29:08.162Z,11
2018-04-16T04:29:58.220Z,11
2018-04-16T04:30:48.292Z,11.1
2018-04-16T04:31:38.061Z,11
2018-04-16T04:32:28.392Z,11
2018-04-16T04:33:18.489Z,11
2018-04-16T04:34:08.524Z,11
2018-04-16T04:34:58.591Z,11
2018-04-16T04:35:48.658Z,11
2018-04-16T04:36:38.735Z,11
2018-04-16T04:37:28.811Z,11
2018-04-16T04:38:18.850Z,11
2018-04-16T04:39:08.923Z,11
2018-04-16T04:39:58.965Z,11
2018-04-16T04:40:49.049Z,11
2018-04-16T04:41:39.087Z,11
2018-04-16T04:42:29.150Z,11
2018-04-16T04:43:19.241Z,11
2018-04-16T04:44:09.291Z,11
2018-04-16T04:44:59.342Z,11
2018-04-16T04:45:49.405Z,11
2018-04-16T04:46:39.206Z,11.1
2018-04-16T04:47:29.255Z,11.1
2018-04-16T04:48:19.592Z,11.1
2018-04-16T04:49:09.659Z,11.1
2018-04-16T04:49:59.717Z,11.1
2018-04-16T04:50:49.789Z,11.1
2018-04-16T04:51:39.571Z,11.1
2018-04-16T04:52:29.907Z,11.1
2018-04-16T04:53:19.989Z,11.1
2018-04-16T04:54:10.035Z,11.1
2018-04-16T04:55:00.111Z,11.1
2018-04-16T04:55:50.171Z,11.2
2018-04-16T04:56:39.954Z,11.2
2018-04-16T04:57:30.088Z,11.3
2018-04-16T04:58:20.361Z,11.3
2018-04-16T04:59:10.132Z,11.3
2018-04-16T05:00:00.477Z,11.3
2018-04-16T05:00:50.266Z,11.4
2018-04-16T05:01:40.599Z,11.3
2018-04-16T05:02:30.659Z,11.4
2018-04-16T05:03:20.727Z,11.4
2018-04-16T05:04:10.798Z,11.4
2018-04-16T05:05:00.851Z,11.4
2018-04-16T05:05:50.636Z,11.5
2018-04-16T05:06:40.989Z,11.5
2018-04-16T05:07:31.036Z,11.5
2018-04-16T05:08:21.112Z,11.5
2018-04-16T05:09:11.168Z,11.6
2018-04-16T05:10:00.954Z,11.6
2018-04-16T05:10:51.292Z,11.6
2018-04-16T05:11:41.383Z,11.6
2018-04-16T05:12:31.431Z,11.6
2018-04-16T05:13:21.493Z,11.7
2018-04-16T05:14:11.264Z,11.7
2018-04-16T05:15:01.634Z,11.7
2018-04-16T05:15:51.681Z,11.8
2018-04-16T05:16:41.734Z,11.8
2018-04-16T05:17:31.801Z,11.8
2018-04-16T05:18:21.856Z,11.9
2018-04-16T05:19:11.921Z,11.9
2018-04-16T05:20:01.995Z,11.9
2018-04-16T05:20:52.053Z,12
2018-04-16T05:21:42.103Z,12
2018-04-16T05:22:32.183Z,12.1
2018-04-16T05:23:22.243Z,12.1
2018-04-16T05:24:12.307Z,12.1
2018-04-16T05:25:02.374Z,12.2
2018-04-16T05:25:52.432Z,12.3
2018-04-16T05:26:42.497Z,12.3
2018-04-16T05:27:32.562Z,12.3
2018-04-16T05:28:22.386Z,12.4
2018-04-16T05:29:12.690Z,12.4
2018-04-16T05:30:02.760Z,12.4
2018-04-16T05:30:52.794Z,12.5
2018-04-16T05:31:42.883Z,12.6
2018-04-16T05:32:33.101Z,12.6
2018-04-16T05:33:22.985Z,12.7
2018-04-16T05:34:13.059Z,12.8
2018-04-16T05:35:03.127Z,12.8
2018-04-16T05:35:52.899Z,12.9
2018-04-16T05:36:43.268Z,12.9
2018-04-16T05:37:33.302Z,13
2018-04-16T05:38:23.085Z,13.1
2018-04-16T05:39:13.149Z,13.1
2018-04-16T05:40:03.487Z,13.2
2018-04-16T05:40:53.542Z,13.3
2018-04-16T05:41:43.619Z,13.3
2018-04-16T05:42:33.833Z,13.4
2018-04-16T05:43:23.761Z,13.4
2018-04-16T05:44:13.801Z,13.4
2018-04-16T05:45:03.869Z,13.5
2018-04-16T05:45:53.924Z,13.6
2018-04-16T05:46:44.005Z,13.7
2018-04-16T05:47:34.059Z,13.8
2018-04-16T05:48:24.118Z,13.8
2018-04-16T05:49:14.241Z,13.9
2018-04-16T05:50:04.254Z,13.9
2018-04-16T05:50:54.308Z,14.1
2018-04-16T05:51:44.373Z,14.1
2018-04-16T05:52:34.432Z,14.2
2018-04-16T05:53:24.510Z,14.3
2018-04-16T05:54:14.578Z,14.4
2018-04-16T05:55:04.639Z,14.4
2018-04-16T05:55:54.683Z,14.5
2018-04-16T05:56:44.470Z,14.6
2018-04-16T05:57:34.533Z,14.7
2018-04-16T05:58:24.885Z,14.8
2018-04-16T05:59:14.935Z,14.9
2018-04-16T06:00:05.011Z,14.9
2018-04-16T06:00:55.077Z,15
2018-04-16T06:01:45.128Z,15.1
2018-04-16T06:02:35.183Z,15.2
2018-04-16T06:03:25.253Z,15.3
2018-04-16T06:04:15.318Z,15.4
2018-04-16T06:05:05.105Z,15.5
2018-04-16T06:05:55.445Z,15.6
2018-04-16T06:06:45.516Z,15.7
2018-04-16T06:07:35.565Z,15.8
2018-04-16T06:08:25.351Z,15.9
2018-04-16T06:09:15.709Z,16
2018-04-16T06:10:05.784Z,16.1
2018-04-16T06:10:55.817Z,16.3
2018-04-16T06:11:45.620Z,16.4
2018-04-16T06:12:35.963Z,16.5
2018-04-16T06:13:26.007Z,16.6
2018-04-16T06:14:16.089Z,16.7
2018-04-16T06:15:05.843Z,16.8
2018-04-16T06:15:56.202Z,16.9
2018-04-16T06:17:36.354Z,17.1
2018-04-16T06:18:26.385Z,17.3
2018-04-16T06:19:16.470Z,17.4
2018-04-16T06:20:06.511Z,17.4
2018-04-16T06:20:56.569Z,17.6
2018-04-16T06:21:46.662Z,17.6
2018-04-16T06:22:36.706Z,17.8
2018-04-16T06:23:26.770Z,17.9
2018-04-16T06:24:16.549Z,18
2018-04-16T06:25:06.919Z,18.1
2018-04-16T06:25:56.940Z,18.2
2018-04-16T06:26:47.030Z,18.3
2018-04-16T06:27:36.791Z,18.4
2018-04-16T06:28:27.136Z,18.4
2018-04-16T06:29:17.192Z,18.6
2018-04-16T06:30:57.333Z,18.8
2018-04-16T06:31:47.401Z,18.9
2018-04-16T06:32:37.160Z,19
2018-04-16T06:33:27.513Z,19.1
2018-04-16T06:34:17.619Z,19.2
2018-04-16T06:35:07.637Z,19.3
2018-04-16T06:35:57.417Z,19.4
2018-04-16T06:36:47.860Z,19.5
2018-04-16T06:37:37.820Z,19.6
2018-04-16T06:38:27.890Z,19.8
2018-04-16T06:39:17.952Z,19.8
2018-04-16T06:40:08.015Z,19.9
2018-04-16T06:40:58.077Z,20.1
2018-04-16T06:41:47.863Z,20.1
2018-04-16T06:42:38.202Z,20.3
2018-04-16T06:43:28.264Z,20.4
2018-04-16T06:44:18.054Z,20.4
2018-04-16T06:45:08.388Z,20.6
2018-04-16T06:45:58.448Z,20.6
2018-04-16T06:46:48.510Z,20.7
2018-04-16T06:47:38.585Z,20.8
2018-04-16T06:48:28.658Z,20.8
2018-04-16T06:49:18.699Z,20.9
2018-04-16T06:50:08.480Z,20.9
2018-04-16T06:50:58.824Z,21
2018-04-16T06:51:48.622Z,21.1
2018-04-16T06:53:29.016Z,21.2
2018-04-16T06:54:19.076Z,21.2
2018-04-16T06:55:09.135Z,21.3
2018-04-16T06:55:59.217Z,21.3
2018-04-16T06:56:49.264Z,21.3
2018-04-16T06:57:39.334Z,21.4
2018-04-16T06:58:29.389Z,21.4
2018-04-16T06:59:19.489Z,21.4
2018-04-16T07:00:09.547Z,21.4
2018-04-16T07:00:59.604Z,21.5
2018-04-16T07:01:49.433Z,21.6
2018-04-16T07:02:39.703Z,21.6
2018-04-16T07:03:29.790Z,21.6
2018-04-16T07:04:19.566Z,21.6
2018-04-16T07:05:09.909Z,21.7
2018-04-16T07:05:59.963Z,21.7
2018-04-16T07:06:50.034Z,21.8
2018-04-16T07:07:39.809Z,21.8
2018-04-16T07:08:29.883Z,21.8
2018-04-16T07:09:19.943Z,21.9
2018-04-16T07:10:10.463Z,21.9
2018-04-16T07:11:00.394Z,22
2018-04-16T07:11:50.408Z,22.1
2018-04-16T07:12:40.462Z,22.2
2018-04-16T07:13:30.516Z,22.3
2018-04-16T07:14:20.591Z,22.4
2018-04-16T07:15:10.369Z,22.5
2018-04-16T07:16:00.835Z,22.6
2018-04-16T07:16:50.495Z,22.8
2018-04-16T07:17:40.563Z,22.9
2018-04-16T07:18:30.914Z,22.9
2018-04-16T07:19:20.696Z,23.1
2018-04-16T07:20:10.740Z,23.3
2018-04-16T07:21:01.103Z,23.4
2018-04-16T07:21:50.882Z,23.4
2018-04-16T07:22:41.224Z,23.6
2018-04-16T07:23:31.288Z,23.7
2018-04-16T07:24:21.073Z,23.8
2018-04-16T07:25:11.404Z,23.9
2018-04-16T07:26:01.480Z,23.9
2018-04-16T07:26:51.535Z,24.1
2018-04-16T07:27:41.309Z,24.2
2018-04-16T07:28:31.364Z,24.3
2018-04-16T07:29:21.442Z,24.4
2018-04-16T07:30:11.781Z,24.5
2018-04-16T07:31:01.572Z,24.6
2018-04-16T07:31:51.911Z,24.8
2018-04-16T07:32:41.972Z,24.9
2018-04-16T07:33:31.769Z,25
2018-04-16T07:34:22.093Z,25.2
2018-04-16T07:35:12.154Z,17.4
2018-04-16T07:36:02.216Z,18.4
2018-04-16T07:36:52.004Z,18.9
2018-04-16T07:37:42.351Z,19.7
2018-04-16T07:38:32.401Z,22.6
2018-04-16T07:39:22.465Z,23.2
2018-04-16T07:40:12.543Z,22.3
2018-04-16T07:41:02.315Z,21.2
2018-04-16T07:41:52.382Z,20.7
2018-04-16T07:42:42.451Z,20.8
2018-04-16T07:43:32.785Z,21.1
2018-04-16T07:44:22.291Z,21.3
2018-04-16T07:45:12.921Z,21.3
2018-04-16T07:46:02.969Z,21.2
2018-04-16T07:46:52.758Z,21.1
2018-04-16T07:47:43.094Z,21
2018-04-16T07:48:33.152Z,21
2018-04-16T07:49:23.232Z,21
2018-04-16T07:50:13.302Z,21.1
2018-04-16T07:51:03.367Z,21.1
2018-04-16T07:51:53.431Z,21.1
2018-04-16T07:52:43.197Z,21.1
2018-04-16T07:54:23.337Z,21.2
2018-04-16T07:55:13.656Z,21.2
2018-04-16T07:56:03.732Z,21.3
2018-04-16T07:56:53.791Z,21.3
2018-04-16T07:57:43.879Z,21.3
2018-04-16T07:58:33.919Z,21.4
2018-04-16T07:59:23.993Z,21.4
2018-04-16T08:00:14.039Z,21.5
2018-04-16T08:01:03.823Z,21.6
2018-04-16T08:01:54.172Z,21.6
2018-04-16T08:02:43.979Z,21.7
2018-04-16T08:03:34.286Z,21.7
2018-04-16T08:04:24.345Z,21.8
2018-04-16T08:05:14.415Z,21.8
2018-04-16T08:06:04.484Z,21.8
2018-04-16T08:06:54.260Z,21.9
2018-04-16T08:07:44.609Z,21.9
2018-04-16T08:08:34.693Z,22
2018-04-16T08:09:24.726Z,22
2018-04-16T08:10:14.510Z,22.1
2018-04-16T08:11:04.583Z,22.1
2018-04-16T08:11:54.936Z,22.2
2018-04-16T08:12:44.976Z,22.3
2018-04-16T08:13:35.058Z,22.3
2018-04-16T08:14:24.831Z,22.4
2018-04-16T08:15:15.170Z,22.5
2018-04-16T08:16:05.365Z,22.6
2018-04-16T08:16:55.305Z,22.6
2018-04-16T08:17:45.081Z,22.7
2018-04-16T08:18:35.157Z,22.8
2018-04-16T08:19:25.552Z,22.8
2018-04-16T08:20:15.548Z,22.9
2018-04-16T08:21:05.615Z,22.9
2018-04-16T08:21:55.672Z,23
2018-04-16T08:22:45.736Z,23.1
2018-04-16T08:23:35.803Z,23.1
2018-04-16T08:24:25.881Z,23.2
2018-04-16T08:25:15.925Z,23.2
2018-04-16T08:26:06.003Z,23.3
2018-04-16T08:26:56.050Z,23.3
2018-04-16T08:27:46.128Z,23.4
2018-04-16T08:28:35.905Z,23.4
2018-04-16T08:29:25.967Z,23.4
2018-04-16T08:30:16.307Z,23.4
2018-04-16T08:31:06.368Z,23.5
2018-04-16T08:31:56.438Z,23.6
2018-04-16T08:32:46.492Z,23.6
2018-04-16T08:33:36.555Z,23.7
2018-04-16T08:34:26.617Z,23.8
2018-04-16T08:35:16.682Z,23.8
2018-04-16T08:36:06.542Z,23.9
2018-04-16T08:36:56.803Z,24
2018-04-16T08:37:46.865Z,24
2018-04-16T08:38:36.657Z,24.1
2018-04-16T08:39:27.007Z,24.2
2018-04-16T08:40:16.794Z,24.2
2018-04-16T08:41:07.139Z,24.3
2018-04-16T08:41:56.895Z,24.3
2018-04-16T08:42:47.244Z,24.3
2018-04-16T08:43:37.312Z,24.3
2018-04-16T08:44:27.382Z,24.3
2018-04-16T08:45:17.150Z,24.4
2018-04-16T08:46:07.492Z,24.4
2018-04-16T08:46:57.555Z,24.4
2018-04-16T08:47:47.348Z,24.5
2018-04-16T08:48:37.685Z,24.5
2018-04-16T08:49:27.462Z,24.5
2018-04-16T08:50:17.806Z,24.6
2018-04-16T08:51:07.601Z,24.6
2018-04-16T08:51:57.931Z,24.6
2018-04-16T08:52:47.993Z,24.6
2018-04-16T08:53:38.056Z,24.7
2018-04-16T08:54:28.123Z,24.7
2018-04-16T08:55:18.183Z,24.8
2018-04-16T08:56:08.249Z,24.8
2018-04-16T08:56:58.306Z,24.8
2018-04-16T08:57:48.370Z,24.9
2018-04-16T08:58:38.441Z,24.9
2018-04-16T08:59:28.498Z,24.9
2018-04-16T09:00:18.555Z,24.9
2018-04-16T09:01:08.620Z,24.9
2018-04-16T09:01:58.680Z,25
2018-04-16T09:02:48.749Z,25
2018-04-16T09:03:38.833Z,25.1
2018-04-16T09:04:28.868Z,25.1
2018-04-16T09:05:18.935Z,25.1
2018-04-16T09:06:09.018Z,25.1
2018-04-16T09:06:59.057Z,25.1
2018-04-16T09:07:48.847Z,25.1
2018-04-16T09:08:39.195Z,25.1
2018-04-16T09:09:29.276Z,25.1
2018-04-16T09:10:19.319Z,25.1
2018-04-16T09:11:09.390Z,25.1
2018-04-16T09:11:59.432Z,25.1
2018-04-16T09:12:49.503Z,25.2
2018-04-16T09:13:39.562Z,25.2
2018-04-16T09:14:29.343Z,25.3
2018-04-16T09:15:19.423Z,25.3
2018-04-16T09:16:09.477Z,25.3
2018-04-16T09:16:59.827Z,25.3
2018-04-16T09:17:49.879Z,25.4
2018-04-16T09:18:39.962Z,25.4
2018-04-16T09:19:30.010Z,25.4
2018-04-16T09:20:20.079Z,25.5
2018-04-16T09:21:10.144Z,25.6
2018-04-16T09:21:59.927Z,25.6
2018-04-16T09:22:50.262Z,25.6
2018-04-16T09:23:40.320Z,25.7
2018-04-16T09:24:30.110Z,25.8
2018-04-16T09:25:20.459Z,25.8
2018-04-16T09:26:10.506Z,25.9
2018-04-16T09:27:00.570Z,25.9
2018-04-16T09:27:50.070Z,26
2018-04-16T09:28:40.726Z,26.1
2018-04-16T09:29:30.492Z,26.1
2018-04-16T09:30:20.544Z,26.1
2018-04-16T09:31:10.617Z,26.2
2018-04-16T09:32:00.948Z,26.2
2018-04-16T09:32:50.733Z,26.3
2018-04-16T09:33:41.076Z,26.3
2018-04-16T09:34:30.857Z,26.3
2018-04-16T09:35:20.641Z,26.4
2018-04-16T09:36:11.283Z,26.4
2018-04-16T09:37:01.050Z,26.4
2018-04-16T09:37:51.445Z,26.4
2018-04-16T09:38:41.462Z,26.5
2018-04-16T09:39:31.254Z,26.6
2018-04-16T09:40:21.592Z,26.6
2018-04-16T09:41:11.640Z,26.6
2018-04-16T09:42:01.717Z,26.6
2018-04-16T09:42:51.489Z,26.6
2018-04-16T09:43:41.542Z,26.7
2018-04-16T09:44:31.895Z,26.7
2018-04-16T09:45:21.952Z,26.7
2018-04-16T09:46:11.759Z,26.8
2018-04-16T09:47:02.087Z,26.8
2018-04-16T09:47:52.149Z,26.8
2018-04-16T09:48:41.944Z,26.8
2018-04-16T09:49:32.267Z,26.8
2018-04-16T09:50:22.417Z,26.8
2018-04-16T09:51:12.130Z,26.8
2018-04-16T09:52:02.477Z,26.8
2018-04-16T09:52:52.524Z,26.8
2018-04-16T09:53:42.599Z,26.8
2018-04-16T09:54:32.373Z,26.8
2018-04-16T09:55:22.435Z,26.8
2018-04-16T09:56:12.506Z,26.8
2018-04-16T09:57:02.846Z,26.7
2018-04-16T09:57:52.617Z,26.7
2018-04-16T09:58:42.689Z,26.6
2018-04-16T09:59:33.014Z,26.6
2018-04-16T10:00:23.195Z,26.6
2018-04-16T10:01:13.153Z,26.6
2018-04-16T10:02:03.219Z,26.6
2018-04-16T10:02:53.283Z,26.6
2018-04-16T10:03:43.332Z,26.6
2018-04-16T10:04:33.398Z,26.5
2018-04-16T10:05:23.465Z,26.5
2018-04-16T10:06:13.533Z,26.5
2018-04-16T10:07:03.314Z,26.4
2018-04-16T10:07:53.377Z,26.4
2018-04-16T10:08:43.708Z,26.4
2018-04-16T10:09:33.775Z,26.4
2018-04-16T10:10:23.838Z,26.4
2018-04-16T10:11:13.906Z,26.4
2018-04-16T10:12:03.963Z,26.4
2018-04-16T10:12:54.026Z,26.4
2018-04-16T10:13:44.136Z,26.4
2018-04-16T10:14:34.160Z,26.4
2018-04-16T10:15:23.654Z,26.4
2018-04-16T10:16:14.275Z,26.4
2018-04-16T10:17:04.358Z,26.4
2018-04-16T10:17:54.413Z,26.2
2018-04-16T10:18:44.196Z,26.1
2018-04-16T10:19:34.534Z,26.1
2018-04-16T10:20:24.597Z,26.1
2018-04-16T10:21:14.655Z,26.1
2018-04-16T10:22:04.445Z,26.1
2018-04-16T10:22:54.491Z,26.1
2018-04-16T10:23:44.573Z,26
2018-04-16T10:24:34.901Z,26
2018-04-16T10:25:24.680Z,25.9
2018-04-16T10:26:14.758Z,25.9
2018-04-16T10:27:04.810Z,25.9
2018-04-16T10:27:55.172Z,25.9
2018-04-16T10:28:44.943Z,25.9
2018-04-16T10:29:34.722Z,25.9
2018-04-16T10:30:25.342Z,25.9
2018-04-16T10:31:15.408Z,25.9
2018-04-16T10:32:05.465Z,25.9
2018-04-16T10:32:55.545Z,25.9
2018-04-16T10:33:45.602Z,25.9
2018-04-16T10:34:35.383Z,25.9
2018-04-16T10:35:25.716Z,25.9
2018-04-16T10:36:15.491Z,25.9
2018-04-16T10:37:05.849Z,25.9
2018-04-16T10:37:55.628Z,25.9
2018-04-16T10:38:45.995Z,25.9
2018-04-16T10:39:36.057Z,25.9
2018-04-16T10:40:26.114Z,25.9
2018-04-16T10:41:16.171Z,25.9
2018-04-16T10:42:06.218Z,25.9
2018-04-16T10:42:56.001Z,25.9
2018-04-16T10:43:46.060Z,25.9
2018-04-16T10:44:35.849Z,25.9
2018-04-16T10:45:26.478Z,25.8
2018-04-16T10:46:16.539Z,25.9
2018-04-16T10:47:06.797Z,25.9
2018-04-16T10:47:56.585Z,25.9
2018-04-16T10:48:47.224Z,25.9
2018-04-16T10:49:37.286Z,25.9
2018-04-16T10:50:27.380Z,25.9
2018-04-16T10:51:17.401Z,25.9
2018-04-16T10:52:07.446Z,25.9
2018-04-16T10:52:57.520Z,25.9
2018-04-16T10:53:47.598Z,25.9
2018-04-16T10:54:37.640Z,25.9
2018-04-16T10:55:27.693Z,25.9
2018-04-16T10:56:17.493Z,25.9
2018-04-16T10:57:07.837Z,25.9
2018-04-16T10:57:57.905Z,25.9
2018-04-16T10:58:47.965Z,25.9
2018-04-16T10:59:38.011Z,25.9
2018-04-16T11:00:28.102Z,25.9
2018-04-16T11:01:18.154Z,25.9
2018-04-16T11:02:08.205Z,25.9
2018-04-16T11:02:57.719Z,25.9
2018-04-16T11:03:48.345Z,25.9
2018-04-16T11:04:38.392Z,25.9
2018-04-16T11:05:28.177Z,25.9
2018-04-16T11:06:18.645Z,25.9
2018-04-16T11:07:08.300Z,25.9
2018-04-16T11:07:58.081Z,25.8
2018-04-16T11:08:48.722Z,25.8
2018-04-16T11:09:38.785Z,25.8
2018-04-16T11:10:28.542Z,25.8
2018-04-16T11:11:18.900Z,25.8
2018-04-16T11:12:08.947Z,25.8
2018-04-16T11:12:59.014Z,25.8